sensor_id;sensor_type;location;lat;lon;timestamp;pressure;altitude;pressure_sealevel;temperature;humidity
73600;BME280;61877;48.246;9.220;2024-01-11T00:01:23;94801.06;;;-8.78;100.00
73600;BME280;61877;48.246;9.220;2024-01-11T00:03:48;94798.06;;;-8.81;100.00
73600;BME280;61877;48.246;9.220;2024-01-11T00:06:14;94801.06;;;-8.84;100.00
73600;BME280;61877;48.246;9.220;2024-01-11T00:08:40;94801.69;;;-8.89;100.00
73600;BME280;61877;48.246;9.220;2024-01-11T00:11:06;94803.28;;;-8.94;100.00
73600;BME280;61877;48.246;9.220;2024-01-11T00:13:31;94804.47;;;-8.97;100.00
73600;BME280;61877;48.246;9.220;2024-01-11T00:15:56;94797.06;;;-9.00;100.00
73600;BME280;61877;48.246;9.220;2024-01-11T00:18:22;94799.47;;;-8.98;100.00
73600;BME280;61877;48.246;9.220;2024-01-11T00:20:47;94806.69;;;-9.00;100.00
73600;BME280;61877;48.246;9.220;2024-01-11T00:23:12;94808.69;;;-9.02;100.00
73600;BME280;61877;48.246;9.220;2024-01-11T00:25:39;94810.06;;;-9.00;100.00
73600;BME280;61877;48.246;9.220;2024-01-11T00:28:05;94818.28;;;-9.03;100.00
73600;BME280;61877;48.246;9.220;2024-01-11T00:30:30;94806.50;;;-8.92;100.00
73600;BME280;61877;48.246;9.220;2024-01-11T00:32:55;94805.84;;;-8.62;100.00
73600;BME280;61877;48.246;9.220;2024-01-11T00:35:21;94801.66;;;-8.63;99.92
73600;BME280;61877;48.246;9.220;2024-01-11T00:37:46;94807.47;;;-8.80;99.94
73600;BME280;61877;48.246;9.220;2024-01-11T00:40:12;94813.47;;;-8.93;100.00
73600;BME280;61877;48.246;9.220;2024-01-11T00:42:38;94814.28;;;-9.05;100.00
73600;BME280;61877;48.246;9.220;2024-01-11T00:45:04;94811.88;;;-9.13;100.00
73600;BME280;61877;48.246;9.220;2024-01-11T00:47:30;94820.88;;;-9.22;100.00
73600;BME280;61877;48.246;9.220;2024-01-11T00:49:55;94809.66;;;-9.23;100.00
73600;BME280;61877;48.246;9.220;2024-01-11T00:52:20;94814.88;;;-9.16;100.00
73600;BME280;61877;48.246;9.220;2024-01-11T00:54:46;94812.47;;;-8.98;100.00
73600;BME280;61877;48.246;9.220;2024-01-11T00:57:11;94817.69;;;-8.85;100.00
73600;BME280;61877;48.246;9.220;2024-01-11T00:59:39;94813.25;;;-8.72;100.00
73600;BME280;61877;48.246;9.220;2024-01-11T01:02:04;94814.06;;;-8.84;99.24
73600;BME280;61877;48.246;9.220;2024-01-11T01:04:30;94814.69;;;-8.95;100.00
73600;BME280;61877;48.246;9.220;2024-01-11T01:06:55;94811.09;;;-9.01;100.00
73600;BME280;61877;48.246;9.220;2024-01-11T01:09:20;94812.47;;;-9.11;100.00
73600;BME280;61877;48.246;9.220;2024-01-11T01:11:46;94811.09;;;-9.20;100.00
73600;BME280;61877;48.246;9.220;2024-01-11T01:14:11;94801.28;;;-9.25;100.00
73600;BME280;61877;48.246;9.220;2024-01-11T01:16:38;94805.47;;;-9.30;100.00
73600;BME280;61877;48.246;9.220;2024-01-11T01:19:03;94805.06;;;-9.34;100.00
73600;BME280;61877;48.246;9.220;2024-01-11T01:21:29;94807.88;;;-9.36;100.00
73600;BME280;61877;48.246;9.220;2024-01-11T01:23:54;94813.84;;;-9.35;100.00
73600;BME280;61877;48.246;9.220;2024-01-11T01:26:19;94813.84;;;-9.35;100.00
73600;BME280;61877;48.246;9.220;2024-01-11T01:28:45;94817.03;;;-9.40;100.00
73600;BME280;61877;48.246;9.220;2024-01-11T01:31:10;94816.63;;;-9.37;100.00
73600;BME280;61877;48.246;9.220;2024-01-11T01:33:37;94826.06;;;-9.36;100.00
73600;BME280;61877;48.246;9.220;2024-01-11T01:36:02;94823.47;;;-9.29;100.00
73600;BME280;61877;48.246;9.220;2024-01-11T01:38:28;94823.66;;;-9.17;100.00
73600;BME280;61877;48.246;9.220;2024-01-11T01:40:53;94830.25;;;-9.08;100.00
73600;BME280;61877;48.246;9.220;2024-01-11T01:43:18;94833.06;;;-9.10;100.00
73600;BME280;61877;48.246;9.220;2024-01-11T01:45:44;94839.25;;;-9.17;100.00
73600;BME280;61877;48.246;9.220;2024-01-11T01:48:09;94847.03;;;-9.24;100.00
73600;BME280;61877;48.246;9.220;2024-01-11T01:50:36;94845.81;;;-9.35;100.00
73600;BME280;61877;48.246;9.220;2024-01-11T01:53:02;94854.63;;;-9.42;100.00
73600;BME280;61877;48.246;9.220;2024-01-11T01:55:28;94853.59;;;-9.48;100.00
73600;BME280;61877;48.246;9.220;2024-01-11T01:57:54;94849.59;;;-9.57;100.00
73600;BME280;61877;48.246;9.220;2024-01-11T02:00:21;94845.97;;;-9.56;100.00
73600;BME280;61877;48.246;9.220;2024-01-11T02:02:49;94852.00;;;-9.55;100.00
73600;BME280;61877;48.246;9.220;2024-01-11T02:05:16;94854.16;;;-9.59;100.00
73600;BME280;61877;48.246;9.220;2024-01-11T02:07:44;94851.19;;;-9.49;100.00
73600;BME280;61877;48.246;9.220;2024-01-11T02:10:10;94852.78;;;-9.42;100.00
73600;BME280;61877;48.246;9.220;2024-01-11T02:12:35;94855.81;;;-9.32;100.00
73600;BME280;61877;48.246;9.220;2024-01-11T02:15:01;94853.06;;;-9.17;100.00
73600;BME280;61877;48.246;9.220;2024-01-11T02:17:26;94857.84;;;-9.07;100.00
73600;BME280;61877;48.246;9.220;2024-01-11T02:19:52;94853.44;;;-9.13;100.00
73600;BME280;61877;48.246;9.220;2024-01-11T02:22:21;94849.44;;;-9.16;99.81
73600;BME280;61877;48.246;9.220;2024-01-11T02:24:48;94852.22;;;-9.30;99.95
73600;BME280;61877;48.246;9.220;2024-01-11T02:27:13;94855.03;;;-9.39;100.00
73600;BME280;61877;48.246;9.220;2024-01-11T02:29:39;94843.19;;;-9.48;100.00
73600;BME280;61877;48.246;9.220;2024-01-11T02:32:04;94844.56;;;-9.58;100.00
73600;BME280;61877;48.246;9.220;2024-01-11T02:34:30;94836.56;;;-9.63;100.00
73600;BME280;61877;48.246;9.220;2024-01-11T02:36:56;94840.75;;;-9.69;100.00
73600;BME280;61877;48.246;9.220;2024-01-11T02:39:22;94844.31;;;-9.76;100.00
73600;BME280;61877;48.246;9.220;2024-01-11T02:41:50;94839.91;;;-9.82;100.00
73600;BME280;61877;48.246;9.220;2024-01-11T02:44:16;94845.72;;;-9.80;100.00
73600;BME280;61877;48.246;9.220;2024-01-11T02:46:41;94839.72;;;-9.81;100.00
73600;BME280;61877;48.246;9.220;2024-01-11T02:49:07;94844.69;;;-9.86;100.00
73600;BME280;61877;48.246;9.220;2024-01-11T02:51:32;94835.13;;;-9.85;100.00
73600;BME280;61877;48.246;9.220;2024-01-11T02:53:57;94832.13;;;-9.82;100.00
73600;BME280;61877;48.246;9.220;2024-01-11T02:56:23;94841.19;;;-9.65;100.00
73600;BME280;61877;48.246;9.220;2024-01-11T02:58:49;94832.78;;;-9.61;100.00
73600;BME280;61877;48.246;9.220;2024-01-11T03:01:15;94827.38;;;-9.66;100.00
73600;BME280;61877;48.246;9.220;2024-01-11T03:03:40;94827.16;;;-9.71;100.00
73600;BME280;61877;48.246;9.220;2024-01-11T03:06:06;94822.59;;;-9.69;100.00
73600;BME280;61877;48.246;9.220;2024-01-11T03:08:31;94820.59;;;-9.67;100.00
73600;BME280;61877;48.246;9.220;2024-01-11T03:10:56;94814.81;;;-9.69;100.00
73600;BME280;61877;48.246;9.220;2024-01-11T03:13:23;94812.97;;;-9.75;100.00
73600;BME280;61877;48.246;9.220;2024-01-11T03:15:49;94810.78;;;-9.78;100.00
73600;BME280;61877;48.246;9.220;2024-01-11T03:18:15;94809.41;;;-9.74;100.00
73600;BME280;61877;48.246;9.220;2024-01-11T03:20:40;94807.78;;;-9.75;100.00
73600;BME280;61877;48.246;9.220;2024-01-11T03:23:06;94802.38;;;-9.80;100.00
73600;BME280;61877;48.246;9.220;2024-01-11T03:25:31;94800.19;;;-9.83;100.00
73600;BME280;61877;48.246;9.220;2024-01-11T03:27:57;94798.19;;;-9.87;100.00
73600;BME280;61877;48.246;9.220;2024-01-11T03:30:23;94801.38;;;-9.92;100.00
73600;BME280;61877;48.246;9.220;2024-01-11T03:32:50;94794.13;;;-9.96;100.00
73600;BME280;61877;48.246;9.220;2024-01-11T03:35:15;94793.38;;;-9.97;100.00
73600;BME280;61877;48.246;9.220;2024-01-11T03:37:40;94802.16;;;-9.91;100.00
73600;BME280;61877;48.246;9.220;2024-01-11T03:40:07;94797.53;;;-9.96;100.00
73600;BME280;61877;48.246;9.220;2024-01-11T03:42:32;94799.72;;;-9.99;100.00
73600;BME280;61877;48.246;9.220;2024-01-11T03:44:57;94793.94;;;-10.01;100.00
73600;BME280;61877;48.246;9.220;2024-01-11T03:47:23;94795.75;;;-10.02;100.00
73600;BME280;61877;48.246;9.220;2024-01-11T03:49:49;94795.31;;;-10.05;100.00
73600;BME280;61877;48.246;9.220;2024-01-11T03:52:15;94802.50;;;-10.07;100.00
73600;BME280;61877;48.246;9.220;2024-01-11T03:54:40;94802.50;;;-10.07;100.00
73600;BME280;61877;48.246;9.220;2024-01-11T03:57:06;94803.31;;;-10.00;100.00
73600;BME280;61877;48.246;9.220;2024-01-11T03:59:31;94796.94;;;-9.91;100.00
73600;BME280;61877;48.246;9.220;2024-01-11T04:01:57;94802.03;;;-9.70;100.00
73600;BME280;61877;48.246;9.220;2024-01-11T04:04:22;94804.41;;;-9.69;100.00
73600;BME280;61877;48.246;9.220;2024-01-11T04:06:49;94793.84;;;-9.67;100.00
73600;BME280;61877;48.246;9.220;2024-01-11T04:09:14;94797.22;;;-9.73;100.00
73600;BME280;61877;48.246;9.220;2024-01-11T04:11:40;94800.19;;;-9.83;100.00
73600;BME280;61877;48.246;9.220;2024-01-11T04:14:05;94796.75;;;-9.90;100.00
73600;BME280;61877;48.246;9.220;2024-01-11T04:16:30;94800.75;;;-9.94;100.00
73600;BME280;61877;48.246;9.220;2024-01-11T04:18:56;94800.34;;;-9.97;100.00
73600;BME280;61877;48.246;9.220;2024-01-11T04:21:22;94797.53;;;-10.02;100.00
73600;BME280;61877;48.246;9.220;2024-01-11T04:23:49;94801.13;;;-10.03;100.00
73600;BME280;61877;48.246;9.220;2024-01-11T04:26:14;94800.13;;;-10.09;100.00
73600;BME280;61877;48.246;9.220;2024-01-11T04:28:39;94797.94;;;-10.12;100.00
73600;BME280;61877;48.246;9.220;2024-01-11T04:31:05;94802.50;;;-10.14;100.00
73600;BME280;61877;48.246;9.220;2024-01-11T04:33:30;94807.69;;;-10.14;100.00
73600;BME280;61877;48.246;9.220;2024-01-11T04:35:55;94799.72;;;-10.12;100.00
73600;BME280;61877;48.246;9.220;2024-01-11T04:38:21;94798.34;;;-10.08;100.00
73600;BME280;61877;48.246;9.220;2024-01-11T04:40:47;94803.91;;;-10.05;100.00
73600;BME280;61877;48.246;9.220;2024-01-11T04:43:13;94810.53;;;-9.96;100.00
73600;BME280;61877;48.246;9.220;2024-01-11T04:45:38;94803.56;;;-9.82;100.00
73600;BME280;61877;48.246;9.220;2024-01-11T04:48:04;94801.81;;;-9.75;100.00
73600;BME280;61877;48.246;9.220;2024-01-11T04:50:30;94796.81;;;-9.77;100.00
73600;BME280;61877;48.246;9.220;2024-01-11T04:52:55;94803.00;;;-9.71;100.00
73600;BME280;61877;48.246;9.220;2024-01-11T04:55:20;94801.41;;;-9.79;99.60
73600;BME280;61877;48.246;9.220;2024-01-11T04:57:47;94801.78;;;-9.88;100.00
73600;BME280;61877;48.246;9.220;2024-01-11T05:00:13;94799.19;;;-9.88;100.00
73600;BME280;61877;48.246;9.220;2024-01-11T05:02:38;94801.75;;;-9.95;100.00
73600;BME280;61877;48.246;9.220;2024-01-11T05:05:04;94793.75;;;-10.00;100.00
73600;BME280;61877;48.246;9.220;2024-01-11T05:07:29;94797.13;;;-10.06;100.00
73600;BME280;61877;48.246;9.220;2024-01-11T05:09:55;94803.91;;;-10.05;100.00
73600;BME280;61877;48.246;9.220;2024-01-11T05:12:20;94798.91;;;-10.06;100.00
73600;BME280;61877;48.246;9.220;2024-01-11T05:14:47;94804.91;;;-10.12;100.00
73600;BME280;61877;48.246;9.220;2024-01-11T05:17:13;94799.91;;;-10.14;100.00
73600;BME280;61877;48.246;9.220;2024-01-11T05:19:38;94794.72;;;-10.14;100.00
73600;BME280;61877;48.246;9.220;2024-01-11T05:22:03;94792.72;;;-10.18;100.00
73600;BME280;61877;48.246;9.220;2024-01-11T05:24:29;94797.31;;;-10.14;100.00
73600;BME280;61877;48.246;9.220;2024-01-11T05:26:54;94794.50;;;-10.06;100.00
73600;BME280;61877;48.246;9.220;2024-01-11T05:29:19;94792.13;;;-10.07;100.00
73600;BME280;61877;48.246;9.220;2024-01-11T05:31:46;94792.53;;;-10.04;100.00
73600;BME280;61877;48.246;9.220;2024-01-11T05:34:11;94797.31;;;-10.07;100.00
73600;BME280;61877;48.246;9.220;2024-01-11T05:36:37;94798.53;;;-10.10;100.00
73600;BME280;61877;48.246;9.220;2024-01-11T05:39:02;94800.53;;;-10.12;100.00
73600;BME280;61877;48.246;9.220;2024-01-11T05:41:28;94808.31;;;-10.12;100.00
73600;BME280;61877;48.246;9.220;2024-01-11T05:43:53;94807.88;;;-10.15;100.00
73600;BME280;61877;48.246;9.220;2024-01-11T05:46:18;94814.44;;;-10.19;100.00
73600;BME280;61877;48.246;9.220;2024-01-11T05:48:45;94821.44;;;-10.20;100.00
73600;BME280;61877;48.246;9.220;2024-01-11T05:51:10;94818.44;;;-10.23;100.00
73600;BME280;61877;48.246;9.220;2024-01-11T05:53:36;94829.00;;;-10.25;100.00
73600;BME280;61877;48.246;9.220;2024-01-11T05:56:01;94829.78;;;-10.24;100.00
73600;BME280;61877;48.246;9.220;2024-01-11T05:58:27;94830.41;;;-10.22;100.00
73600;BME280;61877;48.246;9.220;2024-01-11T06:00:52;94831.81;;;-10.20;100.00
73600;BME280;61877;48.246;9.220;2024-01-11T06:03:17;94827.59;;;-10.21;100.00
73600;BME280;61877;48.246;9.220;2024-01-11T06:05:44;94826.03;;;-10.22;100.00
73600;BME280;61877;48.246;9.220;2024-01-11T06:08:09;94831.59;;;-10.25;100.00
73600;BME280;61877;48.246;9.220;2024-01-11T06:10:35;94831.81;;;-10.20;100.00
73600;BME280;61877;48.246;9.220;2024-01-11T06:13:00;94834.78;;;-10.23;100.00
73600;BME280;61877;48.246;9.220;2024-01-11T06:15:25;94835.59;;;-10.22;100.00
73600;BME280;61877;48.246;9.220;2024-01-11T06:17:51;94838.38;;;-10.24;100.00
73600;BME280;61877;48.246;9.220;2024-01-11T06:20:16;94842.94;;;-10.26;100.00
73600;BME280;61877;48.246;9.220;2024-01-11T06:22:43;94843.94;;;-10.27;100.00
73600;BME280;61877;48.246;9.220;2024-01-11T06:25:08;94844.75;;;-10.26;100.00
73600;BME280;61877;48.246;9.220;2024-01-11T06:27:33;94843.78;;;-10.19;100.00
73600;BME280;61877;48.246;9.220;2024-01-11T06:29:59;94854.19;;;-10.12;100.00
73600;BME280;61877;48.246;9.220;2024-01-11T06:32:24;94847.59;;;-10.15;100.00
73600;BME280;61877;48.246;9.220;2024-01-11T06:34:49;94847.22;;;-10.12;100.00
73600;BME280;61877;48.246;9.220;2024-01-11T06:37:15;94852.00;;;-10.09;100.00
73600;BME280;61877;48.246;9.220;2024-01-11T06:39:41;94849.81;;;-10.05;100.00
73600;BME280;61877;48.246;9.220;2024-01-11T06:42:07;94855.63;;;-10.10;100.00
73600;BME280;61877;48.246;9.220;2024-01-11T06:44:32;94854.19;;;-10.12;100.00
73600;BME280;61877;48.246;9.220;2024-01-11T06:46:58;94851.41;;;-10.11;100.00
73600;BME280;61877;48.246;9.220;2024-01-11T06:49:23;94850.78;;;-10.13;100.00
73600;BME280;61877;48.246;9.220;2024-01-11T06:51:48;94848.38;;;-10.14;100.00
73600;BME280;61877;48.246;9.220;2024-01-11T06:54:14;94849.78;;;-10.18;100.00
73600;BME280;61877;48.246;9.220;2024-01-11T06:56:40;94848.97;;;-10.19;100.00
73600;BME280;61877;48.246;9.220;2024-01-11T06:59:06;94854.97;;;-10.18;100.00
73600;BME280;61877;48.246;9.220;2024-01-11T07:01:32;94850.16;;;-10.21;100.00
73600;BME280;61877;48.246;9.220;2024-01-11T07:03:57;94857.34;;;-10.23;100.00
73600;BME280;61877;48.246;9.220;2024-01-11T07:06:22;94854.31;;;-10.27;100.00
73600;BME280;61877;48.246;9.220;2024-01-11T07:08:48;94859.50;;;-10.27;100.00
73600;BME280;61877;48.246;9.220;2024-01-11T07:11:13;94859.97;;;-10.17;100.00
73600;BME280;61877;48.246;9.220;2024-01-11T07:13:40;94857.00;;;-10.01;100.00
73600;BME280;61877;48.246;9.220;2024-01-11T07:16:05;94858.44;;;-9.98;99.92
73600;BME280;61877;48.246;9.220;2024-01-11T07:18:31;94861.22;;;-10.00;100.00
73600;BME280;61877;48.246;9.220;2024-01-11T07:20:57;94859.19;;;-10.04;100.00
73600;BME280;61877;48.246;9.220;2024-01-11T07:23:22;94860.00;;;-10.04;100.00
73600;BME280;61877;48.246;9.220;2024-01-11T07:25:47;94859.59;;;-10.01;100.00
73600;BME280;61877;48.246;9.220;2024-01-11T07:28:13;94862.00;;;-9.99;100.00
73600;BME280;61877;48.246;9.220;2024-01-11T07:30:39;94863.22;;;-9.95;100.00
73600;BME280;61877;48.246;9.220;2024-01-11T07:33:05;94873.63;;;-9.89;100.00
73600;BME280;61877;48.246;9.220;2024-01-11T07:35:30;94877.63;;;-9.86;100.00
73600;BME280;61877;48.246;9.220;2024-01-11T07:37:55;94889.41;;;-9.84;100.00
73600;BME280;61877;48.246;9.220;2024-01-11T07:40:21;94897.63;;;-9.80;100.00
73600;BME280;61877;48.246;9.220;2024-01-11T07:42:46;94901.88;;;-9.60;100.00
73600;BME280;61877;48.246;9.220;2024-01-11T07:45:15;94900.13;;;-9.46;99.17
73600;BME280;61877;48.246;9.220;2024-01-11T07:47:42;94902.97;;;-9.35;98.36
73600;BME280;61877;48.246;9.220;2024-01-11T07:50:08;94907.38;;;-9.28;98.43
73600;BME280;61877;48.246;9.220;2024-01-11T07:52:34;94907.81;;;-9.12;98.03
73600;BME280;61877;48.246;9.220;2024-01-11T07:54:59;94898.22;;;-9.05;97.23
73600;BME280;61877;48.246;9.220;2024-01-11T07:57:24;94904.44;;;-9.06;96.95
73600;BME280;61877;48.246;9.220;2024-01-11T07:59:50;94905.66;;;-9.02;97.87
73600;BME280;61877;48.246;9.220;2024-01-11T08:02:15;94916.81;;;-9.01;97.49
73600;BME280;61877;48.246;9.220;2024-01-11T08:04:42;94924.00;;;-9.03;96.91
73600;BME280;61877;48.246;9.220;2024-01-11T08:07:07;94918.44;;;-8.94;97.13
73600;BME280;61877;48.246;9.220;2024-01-11T08:09:34;94911.28;;;-8.79;96.61
73600;BME280;61877;48.246;9.220;2024-01-11T08:11:59;94914.28;;;-8.69;97.58
73600;BME280;61877;48.246;9.220;2024-01-11T08:14:25;94911.88;;;-8.64;96.99
73600;BME280;61877;48.246;9.220;2024-01-11T08:16:50;94911.88;;;-8.57;97.04
73600;BME280;61877;48.246;9.220;2024-01-11T08:19:16;94924.06;;;-8.45;97.14
73600;BME280;61877;48.246;9.220;2024-01-11T08:21:42;94916.88;;;-8.43;96.22
73600;BME280;61877;48.246;9.220;2024-01-11T08:24:08;94921.03;;;-8.29;96.87
73600;BME280;61877;48.246;9.220;2024-01-11T08:26:33;94922.63;;;-8.21;96.76
73600;BME280;61877;48.246;9.220;2024-01-11T08:28:59;94919.00;;;-8.14;95.84
73600;BME280;61877;48.246;9.220;2024-01-11T08:31:24;94922.59;;;-8.08;95.50
73600;BME280;61877;48.246;9.220;2024-01-11T08:33:50;94923.78;;;-7.91;95.60
73600;BME280;61877;48.246;9.220;2024-01-11T08:36:17;94935.75;;;-7.77;95.46
73600;BME280;61877;48.246;9.220;2024-01-11T08:38:44;94933.09;;;-7.64;95.06
73600;BME280;61877;48.246;9.220;2024-01-11T08:41:09;94931.59;;;-7.34;92.31
73600;BME280;61877;48.246;9.220;2024-01-11T08:43:34;94919.34;;;-7.27;91.02
73600;BME280;61877;48.246;9.220;2024-01-11T08:46:00;94913.88;;;-7.19;92.07
73600;BME280;61877;48.246;9.220;2024-01-11T08:48:27;94921.59;;;-6.99;92.66
73600;BME280;61877;48.246;9.220;2024-01-11T08:50:52;94924.13;;;-6.86;91.19
73600;BME280;61877;48.246;9.220;2024-01-11T08:53:18;94924.78;;;-6.66;90.57
73600;BME280;61877;48.246;9.220;2024-01-11T08:55:45;94921.19;;;-6.65;90.99
73600;BME280;61877;48.246;9.220;2024-01-11T08:58:10;94935.25;;;-6.41;90.78
73600;BME280;61877;48.246;9.220;2024-01-11T09:00:36;94927.69;;;-6.25;89.93
73600;BME280;61877;48.246;9.220;2024-01-11T09:03:01;94925.59;;;-6.16;89.69
73600;BME280;61877;48.246;9.220;2024-01-11T09:05:29;94931.19;;;-6.13;89.86
73600;BME280;61877;48.246;9.220;2024-01-11T09:07:55;94932.19;;;-5.89;90.73
73600;BME280;61877;48.246;9.220;2024-01-11T09:10:20;94935.69;;;-5.59;90.19
73600;BME280;61877;48.246;9.220;2024-01-11T09:12:47;94947.13;;;-5.42;88.29
73600;BME280;61877;48.246;9.220;2024-01-11T09:15:12;94946.34;;;-5.24;87.54
73600;BME280;61877;48.246;9.220;2024-01-11T09:17:37;94957.81;;;-5.07;87.23
73600;BME280;61877;48.246;9.220;2024-01-11T09:20:03;94963.31;;;-4.97;86.78
73600;BME280;61877;48.246;9.220;2024-01-11T09:22:29;94951.88;;;-4.85;87.23
73600;BME280;61877;48.246;9.220;2024-01-11T09:24:54;94950.44;;;-4.99;89.52
73600;BME280;61877;48.246;9.220;2024-01-11T09:27:20;94951.00;;;-4.79;90.52
73600;BME280;61877;48.246;9.220;2024-01-11T09:29:46;94949.34;;;-4.62;87.82
73600;BME280;61877;48.246;9.220;2024-01-11T09:32:12;94960.16;;;-4.29;87.44
73600;BME280;61877;48.246;9.220;2024-01-11T09:34:38;94976.25;;;-3.90;86.22
73600;BME280;61877;48.246;9.220;2024-01-11T09:37:03;94978.91;;;-3.56;85.48
73600;BME280;61877;48.246;9.220;2024-01-11T09:39:29;94976.03;;;-3.31;83.38
73600;BME280;61877;48.246;9.220;2024-01-11T09:41:58;94979.66;;;-3.09;81.77
73600;BME280;61877;48.246;9.220;2024-01-11T09:44:24;94980.66;;;-2.99;81.25
73600;BME280;61877;48.246;9.220;2024-01-11T09:46:52;94976.38;;;-2.48;79.77
73600;BME280;61877;48.246;9.220;2024-01-11T09:49:19;94974.06;;;-2.17;78.92
73600;BME280;61877;48.246;9.220;2024-01-11T09:51:49;94975.19;;;-1.08;78.14
73600;BME280;61877;48.246;9.220;2024-01-11T09:54:15;94963.28;;;0.07;73.07
73600;BME280;61877;48.246;9.220;2024-01-11T09:56:42;94951.50;;;0.98;68.94
73600;BME280;61877;48.246;9.220;2024-01-11T09:59:08;94960.09;;;2.12;63.48
73600;BME280;61877;48.246;9.220;2024-01-11T10:01:34;94948.97;;;3.54;60.37
73600;BME280;61877;48.246;9.220;2024-01-11T10:04:01;94944.72;;;4.40;55.93
73600;BME280;61877;48.246;9.220;2024-01-11T10:06:32;94951.63;;;5.27;52.32
73600;BME280;61877;48.246;9.220;2024-01-11T10:08:59;94938.16;;;5.42;52.27
73600;BME280;61877;48.246;9.220;2024-01-11T10:11:24;94939.59;;;5.77;52.13
73600;BME280;61877;48.246;9.220;2024-01-11T10:13:56;94937.75;;;6.14;49.95
73600;BME280;61877;48.246;9.220;2024-01-11T10:16:21;94939.16;;;6.63;47.99
73600;BME280;61877;48.246;9.220;2024-01-11T10:18:46;94933.81;;;7.89;46.85
73600;BME280;61877;48.246;9.220;2024-01-11T10:21:13;94928.41;;;8.74;42.11
73600;BME280;61877;48.246;9.220;2024-01-11T10:23:38;94937.69;;;8.19;43.60
73600;BME280;61877;48.246;9.220;2024-01-11T10:26:04;94929.38;;;7.04;44.69
73600;BME280;61877;48.246;9.220;2024-01-11T10:28:30;94925.94;;;6.71;46.55
73600;BME280;61877;48.246;9.220;2024-01-11T10:30:55;94920.06;;;6.23;46.83
73600;BME280;61877;48.246;9.220;2024-01-11T10:33:21;94911.13;;;6.79;46.46
73600;BME280;61877;48.246;9.220;2024-01-11T10:35:46;94911.56;;;6.53;46.41
73600;BME280;61877;48.246;9.220;2024-01-11T10:38:14;94904.88;;;7.56;44.88
73600;BME280;61877;48.246;9.220;2024-01-11T10:40:40;94908.44;;;7.65;43.92
73600;BME280;61877;48.246;9.220;2024-01-11T10:43:08;94898.81;;;8.13;43.19
73600;BME280;61877;48.246;9.220;2024-01-11T10:45:34;94885.63;;;8.74;41.95
73600;BME280;61877;48.246;9.220;2024-01-11T10:48:01;94880.38;;;9.31;40.20
73600;BME280;61877;48.246;9.220;2024-01-11T10:50:30;94879.38;;;9.57;40.02
73600;BME280;61877;48.246;9.220;2024-01-11T10:53:03;94875.34;;;10.02;38.63
73600;BME280;61877;48.246;9.220;2024-01-11T10:55:31;94876.78;;;10.60;37.71
73600;BME280;61877;48.246;9.220;2024-01-11T10:57:59;94881.34;;;11.31;35.27
73600;BME280;61877;48.246;9.220;2024-01-11T11:00:28;94879.69;;;11.09;36.16
73600;BME280;61877;48.246;9.220;2024-01-11T11:02:54;94881.88;;;10.35;36.75
73600;BME280;61877;48.246;9.220;2024-01-11T11:05:20;94884.22;;;10.54;36.96
73600;BME280;61877;48.246;9.220;2024-01-11T11:07:47;94889.22;;;9.96;39.24
73600;BME280;61877;48.246;9.220;2024-01-11T11:10:13;94889.31;;;9.65;39.24
73600;BME280;61877;48.246;9.220;2024-01-11T11:12:41;94873.91;;;11.36;36.36
73600;BME280;61877;48.246;9.220;2024-01-11T11:15:09;94882.19;;;11.14;36.81
73600;BME280;61877;48.246;9.220;2024-01-11T11:17:36;94877.78;;;11.10;36.71
73600;BME280;61877;48.246;9.220;2024-01-11T11:20:01;94888.19;;;11.20;37.15
73600;BME280;61877;48.246;9.220;2024-01-11T11:22:27;94884.78;;;11.02;35.55
73600;BME280;61877;48.246;9.220;2024-01-11T11:25:02;94880.66;;;10.96;36.64
73600;BME280;61877;48.246;9.220;2024-01-11T11:27:28;94883.19;;;9.82;38.00
73600;BME280;61877;48.246;9.220;2024-01-11T11:29:55;94881.38;;;10.42;37.01
73600;BME280;61877;48.246;9.220;2024-01-11T11:32:34;94864.75;;;9.80;37.59
73600;BME280;61877;48.246;9.220;2024-01-11T11:35:00;94867.28;;;9.68;38.10
73600;BME280;61877;48.246;9.220;2024-01-11T11:37:25;94869.03;;;10.07;38.33
73600;BME280;61877;48.246;9.220;2024-01-11T11:39:50;94867.91;;;9.18;40.28
73600;BME280;61877;48.246;9.220;2024-01-11T11:42:16;94867.06;;;10.29;37.55
73600;BME280;61877;48.246;9.220;2024-01-11T11:44:48;94871.88;;;10.02;38.33
73600;BME280;61877;48.246;9.220;2024-01-11T11:47:22;94861.69;;;10.29;37.77
73600;BME280;61877;48.246;9.220;2024-01-11T11:49:58;94868.63;;;8.13;41.22
73600;BME280;61877;48.246;9.220;2024-01-11T11:52:28;94858.50;;;7.52;42.68
73600;BME280;61877;48.246;9.220;2024-01-11T11:54:55;94855.44;;;6.31;45.70
73600;BME280;61877;48.246;9.220;2024-01-11T11:57:21;94863.28;;;6.55;45.38
73600;BME280;61877;48.246;9.220;2024-01-11T11:59:47;94877.84;;;6.12;46.45
73600;BME280;61877;48.246;9.220;2024-01-11T12:02:16;94885.66;;;5.05;49.70
73600;BME280;61877;48.246;9.220;2024-01-11T12:04:47;94890.06;;;4.01;52.49
73600;BME280;61877;48.246;9.220;2024-01-11T12:07:12;94880.56;;;3.94;53.68
73600;BME280;61877;48.246;9.220;2024-01-11T12:09:38;94891.91;;;3.61;55.47
73600;BME280;61877;48.246;9.220;2024-01-11T12:12:04;94885.31;;;3.97;54.58
73600;BME280;61877;48.246;9.220;2024-01-11T12:14:30;94882.25;;;5.23;50.73
73600;BME280;61877;48.246;9.220;2024-01-11T12:16:56;94882.47;;;5.88;49.66
73600;BME280;61877;48.246;9.220;2024-01-11T12:19:22;94882.34;;;6.94;47.81
73600;BME280;61877;48.246;9.220;2024-01-11T12:21:49;94867.47;;;8.63;44.21
73600;BME280;61877;48.246;9.220;2024-01-11T12:24:15;94866.34;;;9.81;41.89
73600;BME280;61877;48.246;9.220;2024-01-11T12:26:41;94857.81;;;10.90;39.27
73600;BME280;61877;48.246;9.220;2024-01-11T12:29:07;94856.09;;;13.17;35.37
73600;BME280;61877;48.246;9.220;2024-01-11T12:31:32;94850.78;;;14.96;32.46
73600;BME280;61877;48.246;9.220;2024-01-11T12:33:58;94842.44;;;13.82;33.23
73600;BME280;61877;48.246;9.220;2024-01-11T12:36:23;94842.66;;;15.55;30.83
73600;BME280;61877;48.246;9.220;2024-01-11T12:38:50;94831.19;;;15.77;30.47
73600;BME280;61877;48.246;9.220;2024-01-11T12:41:15;94825.22;;;16.56;28.99
73600;BME280;61877;48.246;9.220;2024-01-11T12:43:41;94820.97;;;18.10;26.42
73600;BME280;61877;48.246;9.220;2024-01-11T12:46:30;94821.28;;;17.79;26.94